西安 の空港の天気 - METARとTAF

西安咸陽国際空港 ( ZLXY / XIY ) - 中国 陝西省西安市
飛行場実況気象(Metar)
観測時間06/24 17:00 CST (06/24 09:00 UTC)
風向・風速北東 4m/s
視程10km以上
天気現象
なし
気温24℃
湿度69%
気圧1008hPa
METARZLXY 240900Z 05004MPS 010V070 CAVOK 24/18 Q1008 NOSIG
過去の天気等 Google飛行場航空写真 Wunderground天気予報

過去48時間のMETAR

飛行場予報(TAF)
発表時間: 6/24 11:03 CST (6/24 03:03 UTC)
予報対象時間: 24日14時 CST ~ 25日14時 CST
風向・風速東北東 4m/s
視程3000m
天気現象もや
なし
TAF ZLXY 240303Z 2406/2506 06004MPS 3000 BR NSC TX25/2408Z TN18/2422Z